Terminal Aerodrome Forecast
Issued by NWS Charleston, WV

Current Version | Previous Version | Graphics & Text | Print | Product List | Glossary On
Versions: 1 2 3 4 5 6 7 8 9 10 11 12 13 14 15 16 17 18 19 20 21 22
871
FTUS41 KRLX 261135
TAFHTS
TAF
KHTS 261135Z 2612/2712 00000KT 6SM BR BKN100
     FM261400 22007KT P6SM BKN050
     FM270600 00000KT 6SM BR SCT090
     FM270800 00000KT 4SM BR SCT090=

USA.gov is the U.S. government's official web portal to all federal, state and local government web resources and services.